Time;durP1;ratioP1;P1;durP2;ratioP2;P2;SDS_P1;SDS_P2;PMS_P1;PMS_P2;Temp;Humidity;BMP_temperature;BMP_pressure;BME280_temperature;BME280_humidity;BME280_pressure;Samples;Min_cycle;Max_cycle;Signal;HPM_P1;HPM_P2
2022/08/11 00:01:11;;;;;;;9.82;3.58;;;;;;;26.68;31.45;101283.22;5052799;28;20061;-73
2022/08/11 00:03:46;;;;;;;6.32;3.60;;;;;;;26.75;31.22;101276.72;5052116;28;20048;-73
2022/08/11 00:06:22;;;;;;;14.90;3.50;;;;;;;26.75;30.60;101282.38;5052440;28;20052;-72
2022/08/11 00:08:50;;;;;;;12.05;3.38;;;;;;;26.42;31.32;101281.66;5053802;28;20057;-72
2022/08/11 00:11:19;;;;;;;7.72;3.83;;;;;;;26.54;31.77;101291.72;5057648;28;20499;-72
2022/08/11 00:13:47;;;;;;;7.10;3.40;;;;;;;26.71;32.02;101273.91;5053213;28;20060;-72
2022/08/11 00:16:20;;;;;;;10.02;3.90;;;;;;;26.71;32.21;101282.41;5044931;28;20052;-73
2022/08/11 00:18:50;;;;;;;9.18;4.10;;;;;;;26.56;33.38;101284.44;5053454;28;20138;-72
2022/08/11 00:21:23;;;;;;;9.80;4.60;;;;;;;26.61;33.40;101280.38;5035733;28;20049;-72
2022/08/11 00:24:11;;;;;;;9.73;4.35;;;;;;;26.99;32.74;101273.78;5053453;28;20060;-73
2022/08/11 00:26:38;;;;;;;8.85;4.18;;;;;;;26.74;33.46;101281.59;5045742;28;20049;-72
2022/08/11 00:29:09;;;;;;;6.88;3.80;;;;;;;26.55;33.43;101282.81;5052628;28;20049;-72
2022/08/11 00:31:37;;;;;;;8.18;4.15;;;;;;;26.47;33.58;101278.41;5052412;28;20057;-73
2022/08/11 00:34:10;;;;;;;7.97;4.03;;;;;;;26.48;33.56;101282.06;5053360;28;20060;-73
2022/08/11 00:37:00;;;;;;;11.55;4.45;;;;;;;26.40;33.80;101277.63;5053366;28;20057;-73
2022/08/11 00:39:30;;;;;;;8.23;4.03;;;;;;;26.09;34.60;101284.94;5040394;28;20059;-73
2022/08/11 00:42:18;;;;;;;11.73;4.55;;;;;;;25.91;35.29;101289.75;5053883;28;20412;-74
2022/08/11 00:45:02;;;;;;;10.52;4.13;;;;;;;25.97;35.16;101287.34;5072296;28;20053;-73
2022/08/11 00:47:48;;;;;;;11.27;4.22;;;;;;;26.13;34.81;101285.75;5075710;28;20048;-73
2022/08/11 00:50:25;;;;;;;9.48;4.57;;;;;;;26.16;34.76;101286.94;5075712;28;20510;-73
2022/08/11 00:52:52;;;;;;;10.13;4.63;;;;;;;26.12;35.08;101286.13;5058918;28;20060;-73
2022/08/11 00:55:41;;;;;;;11.60;4.75;;;;;;;25.89;35.33;101282.91;5077121;28;20064;-73
2022/08/11 00:58:37;;;;;;;7.65;3.67;;;;;;;25.90;35.60;101290.97;5058067;28;20060;-73
2022/08/11 01:01:14;;;;;;;9.13;4.13;;;;;;;25.97;35.58;101295.81;5076047;28;20060;-72
2022/08/11 01:04:09;;;;;;;13.85;4.43;;;;;;;25.93;35.30;101292.16;5077025;28;20059;-72
2022/08/11 01:06:49;;;;;;;11.50;4.07;;;;;;;25.90;35.61;101285.34;5076222;28;20071;-71
2022/08/11 01:09:50;;;;;;;13.43;4.27;;;;;;;25.88;35.66;101286.94;5076749;28;20443;-72
2022/08/11 01:12:42;;;;;;;11.60;4.55;;;;;;;25.95;35.53;101282.09;5076909;28;20060;-72
2022/08/11 01:15:24;;;;;;;9.80;4.25;;;;;;;25.79;35.67;101290.16;5038005;28;20052;-72
2022/08/11 01:18:45;;;;;;;7.90;4.07;;;;;;;25.89;35.99;101283.69;5075962;28;20495;-72
2022/08/11 01:21:50;;;;;;;9.15;4.20;;;;;;;25.83;36.12;101290.16;4997594;28;20054;-72
2022/08/11 01:24:51;;;;;;;8.73;4.43;;;;;;;25.71;36.50;101277.28;5059093;28;20435;-72
2022/08/11 01:27:27;;;;;;;9.65;4.30;;;;;;;25.59;36.60;101277.66;5054402;28;20053;-72
2022/08/11 01:30:02;;;;;;;10.45;4.22;;;;;;;25.55;36.70;101280.47;5034910;28;20064;-72
2022/08/11 01:32:55;;;;;;;10.07;4.45;;;;;;;25.64;36.37;101279.28;5069637;28;20449;-72
2022/08/11 01:35:34;;;;;;;7.28;3.83;;;;;;;25.53;36.99;101277.25;5054669;28;20045;-72
2022/08/11 01:38:27;;;;;;;8.63;4.13;;;;;;;25.43;37.05;101280.88;5055730;28;20052;-71
2022/08/11 01:41:07;;;;;;;9.88;4.25;;;;;;;25.46;37.07;101282.06;5055407;28;20060;-71
2022/08/11 01:46:24;;;;;;;8.98;4.28;;;;;;;25.41;37.37;101280.47;5056049;28;20052;-71
2022/08/11 01:49:01;;;;;;;9.18;4.18;;;;;;;25.28;37.67;101279.19;5053457;28;20049;-71
2022/08/11 01:52:06;;;;;;;11.50;4.40;;;;;;;25.37;37.53;101276.00;5055925;28;20049;-71
2022/08/11 01:54:47;;;;;;;8.13;4.40;;;;;;;25.40;37.50;101280.88;5055854;28;20468;-71
2022/08/11 01:57:37;;;;;;;9.05;4.10;;;;;;;25.27;37.49;101288.03;5055385;28;20049;-67
2022/08/11 02:00:18;;;;;;;12.73;4.60;;;;;;;25.17;37.85;101286.00;5054294;28;20056;-68
2022/08/11 02:02:52;;;;;;;7.93;4.40;;;;;;;25.24;37.87;101288.84;5055909;28;20071;-71
2022/08/11 02:05:59;;;;;;;13.93;4.47;;;;;;;25.26;37.64;101281.59;5051146;28;20057;-68
2022/08/11 02:08:46;;;;;;;6.75;3.80;;;;;;;25.17;37.68;101286.81;5033811;28;20057;-68
2022/08/11 02:11:32;;;;;;;11.80;4.18;;;;;;;25.26;37.87;101281.59;5035912;28;20049;-68
2022/08/11 02:14:23;;;;;;;7.95;4.47;;;;;;;25.12;37.84;101278.72;5051413;28;20052;-69
2022/08/11 02:17:29;;;;;;;8.85;4.00;;;;;;;25.13;37.90;101279.53;5034361;28;20057;-68
2022/08/11 02:26:21;;;;;;;9.70;4.85;;;;;;;24.88;38.82;101279.47;5055234;28;20048;-68
2022/08/11 02:28:56;;;;;;;10.02;4.38;;;;;;;24.89;38.76;101283.09;5055748;28;20060;-68
2022/08/11 02:35:02;;;;;;;8.82;4.55;;;;;;;24.91;38.54;101278.69;5055070;28;20053;-68
2022/08/11 02:37:32;;;;;;;11.88;4.60;;;;;;;24.86;39.07;101278.25;5054923;28;20053;-69
2022/08/11 02:40:00;;;;;;;;;;;;;;;24.86;38.92;101284.69;5054540;28;20049;-68
2022/08/11 02:42:32;;;;;;;8.35;4.45;;;;;;;24.67;39.24;101279.34;5055571;28;19920;-71
2022/08/11 02:45:31;;;;;;;9.00;4.00;;;;;;;24.76;39.16;101271.34;5036869;28;20435;-68
2022/08/11 02:51:18;;;;;;;9.73;4.15;;;;;;;24.79;38.71;101281.03;5053716;28;20520;-71
2022/08/11 02:54:04;;;;;;;9.40;3.53;;;;;;;24.53;39.01;101277.25;5053194;28;20048;-68
2022/08/11 02:57:06;;;;;;;7.75;3.20;;;;;;;24.54;37.24;101269.63;5054722;28;20497;-71
2022/08/11 03:00:06;;;;;;;7.78;3.15;;;;;;;24.45;36.50;101269.97;5054979;28;20045;-71
2022/08/11 03:03:06;;;;;;;7.68;3.13;;;;;;;24.14;35.84;101279.03;5054369;28;20425;-68
2022/08/11 03:05:54;;;;;;;8.95;3.10;;;;;;;24.45;35.99;101277.63;5069982;28;20061;-68
2022/08/11 03:08:39;;;;;;;7.25;3.65;;;;;;;24.49;37.08;101272.81;5053791;28;20060;-72
2022/08/11 03:17:23;;;;;;;8.88;3.50;;;;;;;24.66;38.58;101285.38;5071074;28;20060;-67
2022/08/11 03:20:05;;;;;;;6.95;3.35;;;;;;;24.57;38.62;101280.09;5034477;28;20056;-71
2022/08/11 03:22:39;;;;;;;10.85;3.55;;;;;;;24.44;38.67;101273.97;5051023;28;20049;-68
2022/08/11 03:25:30;;;;;;;10.02;3.17;;;;;;;23.60;37.93;101267.72;5053077;28;20056;-72
2022/08/11 03:28:18;;;;;;;9.77;3.00;;;;;;;24.01;37.09;101276.91;5069999;28;20049;-72
2022/08/11 03:31:12;;;;;;;7.28;3.47;;;;;;;24.13;36.65;101271.78;5068719;28;20060;-72
2022/08/11 03:34:11;;;;;;;12.55;3.00;;;;;;;24.15;36.40;101277.84;5037849;28;20068;-69
2022/08/11 03:36:54;;;;;;;7.75;2.78;;;;;;;23.86;36.19;101277.97;5053305;28;20049;-71
2022/08/11 03:39:58;;;;;;;7.03;2.90;;;;;;;23.83;36.50;101268.31;5054911;28;20417;-72
2022/08/11 03:42:29;;;;;;;10.48;3.00;;;;;;;23.89;36.04;101266.75;5052937;28;20060;-72
2022/08/11 03:45:08;;;;;;;8.00;2.95;;;;;;;23.95;36.11;101279.28;5054303;28;20056;-68
2022/08/11 03:47:49;;;;;;;5.60;2.90;;;;;;;24.41;35.74;101276.78;5051965;28;20049;-71
2022/08/11 03:50:46;;;;;;;5.65;2.85;;;;;;;24.18;35.94;101281.88;5054328;28;20052;-71
2022/08/11 03:53:34;;;;;;;6.10;3.08;;;;;;;23.72;36.30;101275.88;5069486;28;20052;-73
2022/08/11 03:56:26;;;;;;;6.03;3.10;;;;;;;23.92;36.80;101268.78;5052950;28;20053;-73
2022/08/11 03:59:24;;;;;;;11.63;2.70;;;;;;;23.73;36.40;101283.09;5054147;28;20057;-72
2022/08/11 04:02:22;;;;;;;10.27;3.00;;;;;;;23.37;36.16;101284.78;5073007;28;20053;-72
2022/08/11 04:05:24;;;;;;;8.65;2.63;;;;;;;23.45;36.32;101273.59;5089578;28;20049;-72
2022/08/11 04:08:13;;;;;;;11.85;2.85;;;;;;;23.47;36.53;101265.59;5074045;28;20060;-72
2022/08/11 04:10:46;;;;;;;14.63;2.85;;;;;;;23.01;36.84;101271.47;5074305;28;20479;-72
2022/08/11 04:13:44;;;;;;;7.13;3.10;;;;;;;23.01;37.00;101281.94;5074177;28;20426;-73
2022/08/11 04:16:58;;;;;;;4.75;2.97;;;;;;;22.98;37.01;101277.88;5072156;28;20056;-72
2022/08/11 04:19:51;;;;;;;7.78;2.78;;;;;;;22.75;37.25;101282.78;5032352;28;20057;-72
2022/08/11 04:22:36;;;;;;;8.55;2.53;;;;;;;23.19;36.90;101277.28;5034822;28;20058;-72
2022/08/11 04:25:25;;;;;;;11.50;3.08;;;;;;;23.07;36.84;101280.38;5031324;28;20065;-72
2022/08/11 04:28:23;;;;;;;8.23;2.92;;;;;;;23.12;36.95;101282.84;5036631;28;20060;-71
2022/08/11 04:31:42;;;;;;;8.35;3.35;;;;;;;23.54;36.22;101285.34;5054866;28;20053;-72
2022/08/11 04:34:31;;;;;;;5.80;2.90;;;;;;;23.03;36.83;101282.38;5025466;28;20100;-73
2022/08/11 04:37:33;;;;;;;6.53;2.97;;;;;;;22.84;37.36;101280.50;5072749;28;20412;-71
2022/08/11 04:40:38;;;;;;;6.63;3.00;;;;;;;23.07;37.05;101277.56;5072828;28;20063;-73
2022/08/11 04:43:26;;;;;;;4.90;2.88;;;;;;;22.96;36.96;101285.88;5072705;28;20079;-72
2022/08/11 04:46:12;;;;;;;7.68;3.17;;;;;;;23.01;37.02;101293.16;5056629;28;20055;-71
2022/08/11 05:01:42;;;;;;;8.32;3.25;;;;;;;23.18;36.62;101284.13;5071668;28;20069;-72
2022/08/11 05:07:39;;;;;;;19.67;4.05;;;;;;;23.21;36.45;101288.97;5075671;28;20063;-73
2022/08/11 05:10:37;;;;;;;6.97;2.85;;;;;;;23.23;36.26;101281.78;5058358;28;20057;-73
2022/08/11 05:36:11;;;;;;;14.52;3.22;;;;;;;23.72;35.53;101312.44;5055810;28;20598;-72
2022/08/11 05:58:39;;;;;;;19.80;3.60;;;;;;;23.92;36.06;101315.84;5038335;28;20045;-65
2022/08/11 06:01:13;;;;;;;9.45;3.03;;;;;;;23.60;35.87;101321.16;5054976;28;20048;-64
2022/08/11 06:06:30;;;;;;;20.63;3.58;;;;;;;23.56;35.30;101317.50;5057196;28;20036;-67
2022/08/11 06:08:58;;;;;;;24.98;3.83;;;;;;;23.49;35.35;101317.41;5034420;28;20049;-67
2022/08/11 06:11:26;;;;;;;18.88;3.55;;;;;;;23.71;35.23;101316.41;5051323;28;20057;-67
2022/08/11 06:14:14;;;;;;;13.60;3.45;;;;;;;23.37;35.68;101320.50;5052690;28;20052;-67
2022/08/11 06:16:42;;;;;;;11.57;3.67;;;;;;;23.24;35.93;101319.94;5046133;28;20642;-68
2022/08/11 06:19:10;;;;;;;17.00;3.50;;;;;;;23.64;35.61;101324.78;5061577;28;20263;-70
2022/08/11 06:21:44;;;;;;;17.98;4.15;;;;;;;23.71;35.59;101324.06;5049559;28;20052;-69
2022/08/11 06:24:13;;;;;;;15.73;3.25;;;;;;;23.68;35.19;101319.22;5035765;28;20057;-71
2022/08/11 06:26:46;;;;;;;12.82;3.10;;;;;;;23.81;35.14;101329.81;5049432;28;20056;-67
2022/08/11 06:29:45;;;;;;;20.65;4.20;;;;;;;24.19;34.25;101320.91;5050431;28;20060;-70
2022/08/11 06:32:14;;;;;;;19.23;4.40;;;;;;;24.28;34.33;101318.56;5044034;28;20040;-67
2022/08/11 06:34:58;;;;;;;10.70;4.07;;;;;;;24.33;34.24;101314.56;5052734;28;20045;-67
2022/08/11 06:37:40;;;;;;;11.50;3.28;;;;;;;23.98;34.36;101319.88;5051673;28;20041;-67
2022/08/11 06:40:07;;;;;;;17.17;3.63;;;;;;;24.22;34.25;101320.13;5043791;28;20393;-68
2022/08/11 06:42:57;;;;;;;20.05;3.67;;;;;;;24.05;34.40;101323.59;5041253;28;20048;-67
2022/08/11 06:45:48;;;;;;;10.63;3.78;;;;;;;24.33;33.93;101315.38;5066515;28;20061;-68
2022/08/11 06:48:18;;;;;;;18.30;3.72;;;;;;;24.12;34.22;101320.03;5064827;28;20049;-67
2022/08/11 06:53:44;;;;;;;16.13;3.25;;;;;;;23.85;34.48;101321.41;5053629;28;20055;-67
2022/08/11 07:02:34;;;;;;;13.55;3.58;;;;;;;24.51;32.82;101319.09;5054151;28;20307;-66
2022/08/11 07:05:07;;;;;;;9.98;3.38;;;;;;;24.55;33.11;101321.16;5052043;28;20048;-66
2022/08/11 07:16:47;;;;;;;10.20;3.38;;;;;;;24.84;32.26;101325.75;5060744;28;20056;-66
2022/08/11 07:30:48;;;;;;;13.93;2.80;;;;;;;24.92;31.37;101324.56;5051207;28;20049;-62
2022/08/11 07:33:37;;;;;;;13.73;3.65;;;;;;;24.97;31.01;101319.38;5042562;28;20048;-67
2022/08/11 07:36:27;;;;;;;16.60;3.75;;;;;;;25.04;31.20;101321.41;5053874;28;20045;-67
2022/08/11 07:38:58;;;;;;;17.48;4.07;;;;;;;25.25;30.91;101311.00;5049364;28;20079;-66
2022/08/11 07:41:27;;;;;;;16.23;5.25;;;;;;;25.41;30.89;101317.13;5048337;28;20052;-66
2022/08/11 07:44:07;;;;;;;23.08;5.28;;;;;;;25.70;30.30;101311.53;5051092;28;20037;-67
2022/08/11 07:52:29;;;;;;;21.55;4.95;;;;;;;25.83;30.42;101307.09;5043585;28;20048;-68
2022/08/11 07:55:07;;;;;;;10.98;4.03;;;;;;;26.01;30.45;101308.72;5045429;28;20045;-71
2022/08/11 08:18:03;;;;;;;20.55;5.63;;;;;;;26.80;29.20;101296.13;5056745;28;20053;-71
2022/08/11 08:20:54;;;;;;;18.40;6.50;;;;;;;26.77;29.24;101297.72;5051482;28;20037;-70
2022/08/11 08:23:32;;;;;;;17.25;5.80;;;;;;;26.91;28.97;101306.16;5039755;28;20061;-70
2022/08/11 08:26:57;;;;;;;28.70;8.02;;;;;;;26.86;28.62;101300.13;5071332;28;20053;-69
2022/08/11 08:30:45;;;;;;;14.77;3.40;;;;;;;26.65;28.83;101307.44;5054712;28;20052;-69
2022/08/11 08:31:42;;;;;;;11.80;2.63;;;;;;;26.62;29.20;101307.44;5054888;28;20037;-69
2022/08/11 08:34:15;;;;;;;9.85;2.30;;;;;;;26.80;28.66;101307.44;5058060;28;20049;-69
2022/08/11 08:36:47;;;;;;;13.18;4.00;;;;;;;26.78;28.92;101299.31;5051651;28;20393;-70
2022/08/11 08:39:20;;;;;;;7.80;3.00;;;;;;;26.89;28.60;101302.13;5024705;28;20049;-70
2022/08/11 08:41:53;;;;;;;21.00;7.90;;;;;;;26.81;28.49;101295.72;5055591;28;20347;-70
2022/08/11 08:44:21;;;;;;;17.15;6.70;;;;;;;26.80;28.73;101298.94;5055845;28;20061;-69
2022/08/11 08:47:13;;;;;;;9.63;2.83;;;;;;;26.80;28.97;101302.56;5034822;28;20061;-68
2022/08/11 08:49:48;;;;;;;10.27;2.42;;;;;;;26.84;28.71;101305.38;5038260;28;20412;-69
2022/08/11 08:52:21;;;;;;;6.25;2.42;;;;;;;27.03;28.86;101304.88;5057234;28;20045;-69
2022/08/11 08:55:03;;;;;;;16.98;6.03;;;;;;;27.07;28.85;101312.16;5055980;28;20057;-71
2022/08/11 08:57:36;;;;;;;12.07;4.10;;;;;;;27.05;28.70;101305.28;5049068;28;20068;-70
2022/08/11 09:00:06;;;;;;;21.45;6.95;;;;;;;27.36;28.13;101304.34;5051466;28;20053;-70
2022/08/11 09:02:38;;;;;;;24.85;8.55;;;;;;;27.20;28.41;101306.84;5052384;28;20064;-71
2022/08/11 09:05:08;;;;;;;22.95;10.82;;;;;;;27.23;28.85;101306.00;5052047;28;20053;-70
2022/08/11 09:07:37;;;;;;;39.63;18.40;;;;;;;27.33;28.74;101310.81;5056816;28;20060;-72
2022/08/11 09:10:09;;;;;;;15.07;5.38;;;;;;;27.40;28.29;101317.25;5059356;28;20052;-70
2022/08/11 09:12:38;;;;;;;11.27;3.78;;;;;;;27.57;27.87;101307.84;5051321;28;20053;-71
2022/08/11 09:15:08;;;;;;;14.13;4.65;;;;;;;27.42;27.93;101297.84;5065614;28;20056;-71
2022/08/11 09:17:44;;;;;;;13.45;4.22;;;;;;;27.37;28.14;101305.97;5050233;28;20064;-70
2022/08/11 09:20:20;;;;;;;21.77;6.97;;;;;;;27.49;28.35;101291.31;5054639;28;20056;-70
2022/08/11 09:28:46;;;;;;;11.82;5.40;;;;;;;27.80;27.78;101293.13;5051181;28;20041;-71
2022/08/11 09:31:14;;;;;;;35.08;14.68;;;;;;;27.85;27.72;101283.34;5072255;28;20057;-70
2022/08/11 09:33:42;;;;;;;18.45;7.32;;;;;;;28.09;27.65;101293.72;5053414;28;20059;-70
2022/08/11 09:41:46;;;;;;;14.27;5.18;;;;;;;28.21;26.93;101271.31;5053499;28;20057;-69
2022/08/11 09:44:47;;;;;;;15.93;5.25;;;;;;;28.27;26.34;101274.50;5041574;28;20061;-69
2022/08/11 09:47:28;;;;;;;15.57;5.88;;;;;;;28.31;26.55;101276.09;5047998;28;20064;-69
2022/08/11 09:49:59;;;;;;;25.52;10.77;;;;;;;28.37;26.38;101268.72;5052805;28;20057;-66
2022/08/11 09:52:29;;;;;;;12.57;4.47;;;;;;;28.61;25.86;101276.16;5053346;28;20053;-66
2022/08/11 09:54:57;;;;;;;12.18;4.03;;;;;;;28.55;25.71;101271.38;5055503;28;20064;-70
2022/08/11 10:00:12;;;;;;;16.70;4.50;;;;;;;28.60;26.23;101274.56;5057333;28;20049;-69
2022/08/11 10:02:45;;;;;;;8.80;2.35;;;;;;;28.54;25.54;101270.56;5055470;28;20591;-69
2022/08/11 10:08:04;;;;;;;6.30;2.10;;;;;;;28.37;25.82;101270.75;5054661;28;20052;-70
2022/08/11 10:10:35;;;;;;;10.50;2.33;;;;;;;28.51;25.99;101267.78;5053567;28;20048;-69
2022/08/11 10:13:07;;;;;;;5.97;2.10;;;;;;;28.55;25.13;101265.72;5052378;28;20060;-68
2022/08/11 10:15:58;;;;;;;12.30;2.30;;;;;;;28.73;24.98;101258.59;5074888;28;20049;-67
2022/08/11 10:18:41;;;;;;;6.90;1.88;;;;;;;28.88;24.26;101250.72;5052992;28;20049;-67
2022/08/11 10:21:13;;;;;;;5.13;2.05;;;;;;;28.95;24.47;101261.16;5073292;28;20053;-69
2022/08/11 10:35:30;;;;;;;6.10;2.25;;;;;;;28.95;24.44;101244.16;5051936;28;20053;-64
2022/08/11 10:37:59;;;;;;;9.60;2.05;;;;;;;28.85;24.32;101233.75;5050884;28;20052;-66
2022/08/11 10:40:39;;;;;;;20.35;9.60;;;;;;;28.94;24.43;101240.53;5056107;28;20615;-66
2022/08/11 10:43:12;;;;;;;6.55;2.30;;;;;;;28.95;24.16;101230.78;5057215;28;20067;-66
2022/08/11 10:48:34;;;;;;;3.03;1.90;;;;;;;28.99;24.51;101219.38;5051803;28;20052;-65
2022/08/11 10:51:13;;;;;;;3.45;1.77;;;;;;;29.26;24.19;101225.88;5052611;28;20076;-65
2022/08/11 10:59:19;;;;;;;5.80;2.40;;;;;;;29.12;24.27;101209.88;5053096;28;20423;-66
2022/08/11 11:01:46;;;;;;;6.00;2.15;;;;;;;29.10;24.12;101220.84;5046247;28;20080;-66
2022/08/11 11:04:17;;;;;;;9.52;2.30;;;;;;;29.12;23.94;101217.56;5036603;28;20063;-65
2022/08/11 11:07:05;;;;;;;4.15;2.00;;;;;;;29.16;23.89;101213.47;5051522;28;20048;-64
2022/08/11 11:09:36;;;;;;;3.15;1.65;;;;;;;29.25;23.65;101210.09;5054096;28;20056;-67
2022/08/11 11:18:05;;;;;;;3.53;1.92;;;;;;;29.64;23.69;101213.91;5063644;28;20151;-68
2022/08/11 11:20:46;;;;;;;5.43;1.88;;;;;;;29.43;23.99;101204.97;5034549;28;20052;-66
2022/08/11 11:23:22;;;;;;;8.43;2.22;;;;;;;29.40;23.91;101191.59;5049581;28;20045;-67
2022/08/11 11:26:14;;;;;;;5.50;1.85;;;;;;;29.37;24.08;101178.28;5053990;28;20049;-68
2022/08/11 11:29:03;;;;;;;4.55;2.67;;;;;;;29.45;24.01;101174.88;5027978;28;20057;-67
2022/08/11 11:31:57;;;;;;;6.43;2.10;;;;;;;29.58;23.86;101177.91;5066978;28;20064;-67
2022/08/11 11:34:58;;;;;;;8.40;1.75;;;;;;;29.93;23.66;101176.50;5028264;28;20049;-68
2022/08/11 11:37:25;;;;;;;6.68;2.85;;;;;;;29.80;23.03;101176.31;5015471;28;20061;-67
2022/08/11 11:39:53;;;;;;;6.47;2.67;;;;;;;29.59;23.10;101180.31;5056448;28;20044;-65
2022/08/11 11:42:22;;;;;;;;;;;;;;;29.50;23.34;101177.22;5053315;28;20057;-66
2022/08/11 11:44:50;;;;;;;12.48;2.35;;;;;;;29.48;23.25;101198.78;5050519;28;20388;-66
2022/08/11 11:47:22;;;;;;;5.80;2.22;;;;;;;29.45;23.41;101179.75;5052432;28;20056;-65
2022/08/11 11:49:50;;;;;;;5.97;2.10;;;;;;;29.46;23.23;101170.84;5049100;28;20155;-66
2022/08/11 11:52:19;;;;;;;10.82;2.25;;;;;;;29.51;23.18;101175.19;5055758;28;20041;-67
2022/08/11 11:54:49;;;;;;;6.68;2.00;;;;;;;29.64;23.00;101174.16;5052059;28;20059;-67
2022/08/11 12:03:07;;;;;;;5.10;2.38;;;;;;;29.83;23.08;101164.13;5068475;28;19920;-66
2022/08/11 12:05:35;;;;;;;3.97;1.83;;;;;;;29.80;22.80;101162.13;5068421;28;20048;-69
2022/08/11 12:08:10;;;;;;;9.98;1.90;;;;;;;29.83;22.66;101166.97;5053145;28;20408;-68
2022/08/11 12:10:46;;;;;;;8.40;2.20;;;;;;;29.92;22.69;101161.50;5053897;28;20060;-68
2022/08/11 12:16:02;;;;;;;8.52;2.38;;;;;;;29.80;22.94;101170.66;5051266;28;20049;-68
2022/08/11 12:18:52;;;;;;;7.43;2.40;;;;;;;29.89;22.86;101133.97;5051490;28;20523;-67
2022/08/11 12:21:20;;;;;;;;;;;;;;;29.84;22.60;101126.75;5051581;28;20045;-67
2022/08/11 12:29:35;;;;;;;6.68;2.13;;;;;;;30.19;22.75;101142.28;5050589;28;20053;-66
2022/08/11 12:32:06;;;;;;;6.60;1.95;;;;;;;30.33;22.39;101124.97;5050560;28;20053;-68
2022/08/11 12:34:34;;;;;;;4.20;1.83;;;;;;;30.42;22.20;101130.88;5034373;28;20053;-67
2022/08/11 12:37:04;;;;;;;6.00;2.08;;;;;;;30.39;21.84;101131.72;5051269;28;20061;-67
2022/08/11 12:45:53;;;;;;;9.85;2.22;;;;;;;30.40;21.97;101116.31;5059688;28;20055;-69
2022/08/11 12:54:43;;;;;;;5.90;2.10;;;;;;;31.14;21.42;101103.19;5054169;28;20114;-64
2022/08/11 13:05:55;;;;;;;8.82;2.17;;;;;;;30.76;21.56;101099.22;5069647;28;20048;-64
2022/08/11 13:08:23;;;;;;;7.80;2.28;;;;;;;30.67;21.86;101096.97;5054356;28;20057;-64
2022/08/11 13:13:42;;;;;;;6.22;2.22;;;;;;;30.94;21.45;101105.31;5055795;28;20056;-65
2022/08/11 13:19:20;;;;;;;8.23;1.90;;;;;;;30.79;20.85;101099.16;5052545;28;20657;-63
2022/08/11 13:21:49;;;;;;;5.43;1.90;;;;;;;31.01;21.09;101096.63;5040048;28;20506;-65
2022/08/11 13:24:17;;;;;;;5.05;1.77;;;;;;;31.19;21.28;101096.97;5057795;28;20054;-65
2022/08/11 13:26:45;;;;;;;11.82;2.30;;;;;;;31.37;20.79;101102.22;5055255;28;20052;-65
2022/08/11 13:29:18;;;;;;;5.13;1.90;;;;;;;31.21;20.93;101105.09;5055743;28;20056;-64
2022/08/11 13:31:46;;;;;;;4.72;2.00;;;;;;;30.92;21.35;101102.94;5056900;28;20044;-64
2022/08/11 13:34:15;;;;;;;6.45;1.80;;;;;;;30.79;21.53;101090.63;5062513;28;20049;-64
2022/08/11 13:36:43;;;;;;;6.47;1.83;;;;;;;30.83;21.73;101094.19;5038576;28;20056;-64
2022/08/11 13:39:11;;;;;;;4.45;2.03;;;;;;;30.99;21.99;101081.22;5056421;28;20048;-64
2022/08/11 13:41:41;;;;;;;7.55;2.15;;;;;;;31.20;21.76;101080.69;5069277;28;20049;-64
2022/08/11 13:44:12;;;;;;;7.13;2.10;;;;;;;31.38;21.40;101075.38;5022437;28;20045;-64
2022/08/11 13:46:45;;;;;;;8.77;1.90;;;;;;;31.50;21.46;101072.59;5048965;28;20048;-64
2022/08/11 13:49:15;;;;;;;8.77;2.13;;;;;;;31.30;21.33;101071.06;5059596;28;20060;-63
2022/08/11 13:51:43;;;;;;;6.63;2.97;;;;;;;31.31;21.50;101069.84;5067575;28;20048;-61
2022/08/11 13:54:20;;;;;;;10.13;2.50;;;;;;;31.33;21.46;101070.19;5043007;28;20072;-69
2022/08/11 13:56:51;;;;;;;10.88;2.30;;;;;;;31.51;21.16;101077.03;5053938;28;20048;-68
2022/08/11 13:59:19;;;;;;;7.07;2.30;;;;;;;31.31;20.87;101075.53;5053112;28;20045;-68
2022/08/11 14:02:03;;;;;;;4.70;2.00;;;;;;;31.36;20.77;101086.41;5051867;28;20424;-63
2022/08/11 14:04:56;;;;;;;4.38;1.80;;;;;;;31.52;21.04;101081.47;5046972;28;20479;-63
2022/08/11 14:07:26;;;;;;;13.95;2.60;;;;;;;31.41;20.85;101077.31;5053260;28;20045;-64
2022/08/11 14:09:58;;;;;;;7.18;2.20;;;;;;;31.34;21.02;101075.47;5055868;28;20068;-63
2022/08/11 14:15:19;;;;;;;10.18;2.72;;;;;;;31.28;20.72;101050.81;5050581;28;20053;-64
2022/08/11 14:17:53;;;;;;;4.82;2.08;;;;;;;31.44;21.10;101048.75;5051379;28;20053;-64
2022/08/11 14:20:21;;;;;;;5.78;1.90;;;;;;;31.81;20.22;101056.66;5051184;28;20051;-63
2022/08/11 14:23:09;;;;;;;7.75;2.33;;;;;;;32.08;19.75;101050.59;5051774;28;20061;-64
2022/08/11 14:26:22;;;;;;;6.20;2.15;;;;;;;31.93;20.25;101055.94;5053696;28;20056;-64
2022/08/11 14:28:32;;;;;;;7.20;2.30;;;;;;;31.78;20.56;101051.84;5051271;28;20057;-63
2022/08/11 14:31:07;;;;;;;9.60;2.35;;;;;;;31.69;21.09;101043.19;5050068;28;20075;-64
2022/08/11 14:33:35;;;;;;;9.80;2.38;;;;;;;31.73;20.54;101045.94;5054844;28;20072;-63
2022/08/11 14:36:25;;;;;;;6.05;1.90;;;;;;;31.59;21.06;101052.03;5051072;28;20040;-65
2022/08/11 14:38:53;;;;;;;6.95;2.38;;;;;;;31.70;21.09;101038.25;5024715;28;20420;-63
2022/08/11 14:47:16;;;;;;;7.63;2.28;;;;;;;31.42;21.27;101034.16;5053103;28;20052;-62
2022/08/11 14:49:55;;;;;;;10.15;2.42;;;;;;;31.54;21.03;101032.63;5055659;28;20056;-64
2022/08/11 14:52:55;;;;;;;14.52;2.53;;;;;;;31.69;21.16;101022.44;5036871;28;20056;-63
2022/08/11 14:58:16;;;;;;;7.68;2.30;;;;;;;31.59;21.03;101015.00;5041828;28;20132;-63
2022/08/11 15:00:43;;;;;;;10.32;2.55;;;;;;;31.68;20.58;101007.38;5009510;28;20060;-65
2022/08/11 15:03:12;;;;;;;7.35;2.15;;;;;;;31.80;21.12;101003.00;5032009;28;20060;-64
2022/08/11 15:05:44;;;;;;;8.25;2.20;;;;;;;31.96;20.40;101000.88;5051801;28;20049;-63
2022/08/11 15:08:53;;;;;;;10.48;2.75;;;;;;;31.62;20.48;101006.34;5047211;28;20582;-67
2022/08/11 15:14:10;;;;;;;9.15;2.00;;;;;;;31.69;20.30;100988.25;5054146;28;20055;-64
2022/08/11 15:19:30;;;;;;;6.07;2.10;;;;;;;31.69;20.26;101003.28;5050642;28;20052;-64
2022/08/11 15:24:57;;;;;;;11.23;2.05;;;;;;;31.57;20.74;100992.66;5051741;28;20067;-68
2022/08/11 15:38:50;;;;;;;7.60;2.35;;;;;;;31.63;20.48;100992.88;5049292;28;20057;-67
2022/08/11 15:45:47;;;;;;;7.45;2.25;;;;;;;31.80;20.02;100983.03;5050987;28;20044;-69
2022/08/11 15:47:37;;;;;;;11.32;2.28;;;;;;;32.09;19.63;100972.41;5053408;28;20065;-63
2022/08/11 15:50:06;;;;;;;12.02;3.05;;;;;;;32.03;19.48;100977.06;5031872;28;20052;-62
2022/08/11 15:52:45;;;;;;;7.95;2.30;;;;;;;31.78;19.40;100977.78;5062591;28;20057;-62
2022/08/11 15:55:18;;;;;;;9.18;2.70;;;;;;;31.75;19.70;100980.75;5068470;28;20052;-63
2022/08/11 16:06:44;;;;;;;5.75;2.80;;;;;;;31.98;20.14;100969.88;5052165;28;20056;-69
2022/08/11 16:09:31;;;;;;;6.07;2.28;;;;;;;31.84;20.05;100973.13;5051931;28;20064;-69
2022/08/11 16:12:21;;;;;;;7.55;2.17;;;;;;;31.87;20.16;100972.25;5035959;28;20273;-68
2022/08/11 16:17:48;;;;;;;4.22;2.35;;;;;;;32.03;19.98;100956.31;5057816;28;20052;-68
2022/08/11 16:20:19;;;;;;;9.23;4.20;;;;;;;31.95;19.90;100967.13;5054798;28;20061;-68
2022/08/11 16:22:48;;;;;;;11.15;2.40;;;;;;;31.88;20.28;100970.19;5052934;28;20061;-65
2022/08/11 16:25:32;;;;;;;6.18;2.22;;;;;;;31.70;20.42;100965.00;5074202;28;20051;-67
2022/08/11 16:28:21;;;;;;;11.88;2.40;;;;;;;31.64;20.51;100963.97;5059191;28;20053;-67
2022/08/11 16:30:49;;;;;;;8.07;2.40;;;;;;;31.59;20.50;100958.03;5055094;28;20478;-67
2022/08/11 16:33:18;;;;;;;11.50;2.50;;;;;;;31.52;20.13;100958.22;5053476;28;20053;-66
2022/08/11 16:38:54;;;;;;;11.23;2.30;;;;;;;31.73;20.30;100964.09;5054432;28;20056;-67
2022/08/11 16:47:09;;;;;;;3.90;2.10;;;;;;;31.85;20.08;100951.13;5048612;28;20059;-67
2022/08/11 16:49:45;;;;;;;6.35;2.10;;;;;;;31.75;20.09;100955.13;5053668;28;20049;-67
2022/08/11 16:52:20;;;;;;;9.85;2.70;;;;;;;31.67;20.39;100948.00;5043400;28;20093;-67
2022/08/11 16:54:48;;;;;;;6.13;2.37;;;;;;;31.69;20.85;100945.50;5047572;28;20515;-66